sensor_id;sensor_type;location;lat;lon;timestamp;P1;durP1;ratioP1;P2;durP2;ratioP2
57375;SDS011;44805;45.048;5.062;2023-05-23T00:01:05;5.07;;;2.17;;
57375;SDS011;44805;45.048;5.062;2023-05-23T00:03:31;6.25;;;2.05;;
57375;SDS011;44805;45.048;5.062;2023-05-23T00:05:58;7.00;;;2.42;;
57375;SDS011;44805;45.048;5.062;2023-05-23T00:08:23;4.63;;;2.20;;
57375;SDS011;44805;45.048;5.062;2023-05-23T00:10:49;5.78;;;2.50;;
57375;SDS011;44805;45.048;5.062;2023-05-23T00:13:15;5.70;;;2.30;;
57375;SDS011;44805;45.048;5.062;2023-05-23T00:15:42;6.35;;;2.65;;
57375;SDS011;44805;45.048;5.062;2023-05-23T00:18:08;8.13;;;2.80;;
57375;SDS011;44805;45.048;5.062;2023-05-23T00:20:35;4.85;;;2.50;;
57375;SDS011;44805;45.048;5.062;2023-05-23T00:23:01;6.35;;;2.65;;
57375;SDS011;44805;45.048;5.062;2023-05-23T00:25:27;6.93;;;2.60;;
57375;SDS011;44805;45.048;5.062;2023-05-23T00:27:58;5.40;;;2.60;;
57375;SDS011;44805;45.048;5.062;2023-05-23T00:30:24;6.80;;;2.83;;
57375;SDS011;44805;45.048;5.062;2023-05-23T00:32:50;6.25;;;2.53;;
57375;SDS011;44805;45.048;5.062;2023-05-23T00:35:18;8.82;;;3.17;;
57375;SDS011;44805;45.048;5.062;2023-05-23T00:37:44;6.97;;;2.83;;
57375;SDS011;44805;45.048;5.062;2023-05-23T00:40:10;6.03;;;2.53;;
57375;SDS011;44805;45.048;5.062;2023-05-23T00:42:36;7.93;;;3.35;;
57375;SDS011;44805;45.048;5.062;2023-05-23T00:45:01;6.93;;;2.97;;
57375;SDS011;44805;45.048;5.062;2023-05-23T00:47:27;5.78;;;2.60;;
57375;SDS011;44805;45.048;5.062;2023-05-23T00:49:53;7.45;;;2.65;;
57375;SDS011;44805;45.048;5.062;2023-05-23T00:52:19;6.68;;;2.80;;
57375;SDS011;44805;45.048;5.062;2023-05-23T00:54:44;7.68;;;3.13;;
57375;SDS011;44805;45.048;5.062;2023-05-23T00:57:10;6.80;;;2.58;;
57375;SDS011;44805;45.048;5.062;2023-05-23T00:59:35;9.27;;;3.30;;
57375;SDS011;44805;45.048;5.062;2023-05-23T01:02:02;7.65;;;3.08;;
57375;SDS011;44805;45.048;5.062;2023-05-23T01:04:27;7.70;;;3.45;;
57375;SDS011;44805;45.048;5.062;2023-05-23T01:06:53;9.00;;;3.00;;
57375;SDS011;44805;45.048;5.062;2023-05-23T01:09:20;7.25;;;3.17;;
57375;SDS011;44805;45.048;5.062;2023-05-23T01:14:41;9.00;;;3.38;;
57375;SDS011;44805;45.048;5.062;2023-05-23T01:17:19;7.28;;;3.40;;
57375;SDS011;44805;45.048;5.062;2023-05-23T01:26:00;7.25;;;3.13;;
57375;SDS011;44805;45.048;5.062;2023-05-23T01:28:30;7.80;;;3.47;;
57375;SDS011;44805;45.048;5.062;2023-05-23T01:30:58;8.27;;;3.97;;
57375;SDS011;44805;45.048;5.062;2023-05-23T01:33:27;7.95;;;3.63;;
57375;SDS011;44805;45.048;5.062;2023-05-23T01:35:55;8.02;;;3.65;;
57375;SDS011;44805;45.048;5.062;2023-05-23T01:38:24;8.52;;;4.30;;
57375;SDS011;44805;45.048;5.062;2023-05-23T01:40:50;8.95;;;3.78;;
57375;SDS011;44805;45.048;5.062;2023-05-23T01:43:15;7.70;;;3.85;;
57375;SDS011;44805;45.048;5.062;2023-05-23T01:45:41;9.23;;;3.70;;
57375;SDS011;44805;45.048;5.062;2023-05-23T01:48:07;10.38;;;4.43;;
57375;SDS011;44805;45.048;5.062;2023-05-23T01:50:35;10.38;;;4.20;;
57375;SDS011;44805;45.048;5.062;2023-05-23T01:53:01;9.13;;;3.75;;
57375;SDS011;44805;45.048;5.062;2023-05-23T01:55:27;7.90;;;3.53;;
57375;SDS011;44805;45.048;5.062;2023-05-23T01:57:53;7.70;;;4.25;;
57375;SDS011;44805;45.048;5.062;2023-05-23T02:00:21;8.73;;;3.70;;
57375;SDS011;44805;45.048;5.062;2023-05-23T02:02:47;8.45;;;4.28;;
57375;SDS011;44805;45.048;5.062;2023-05-23T02:05:12;7.97;;;3.80;;
57375;SDS011;44805;45.048;5.062;2023-05-23T02:07:38;8.05;;;3.50;;
57375;SDS011;44805;45.048;5.062;2023-05-23T02:10:05;9.77;;;4.03;;
57375;SDS011;44805;45.048;5.062;2023-05-23T02:12:32;7.90;;;3.78;;
57375;SDS011;44805;45.048;5.062;2023-05-23T02:14:57;8.30;;;4.07;;
57375;SDS011;44805;45.048;5.062;2023-05-23T02:17:23;8.05;;;3.78;;
57375;SDS011;44805;45.048;5.062;2023-05-23T02:19:48;7.20;;;3.47;;
57375;SDS011;44805;45.048;5.062;2023-05-23T02:22:14;8.68;;;4.50;;
57375;SDS011;44805;45.048;5.062;2023-05-23T02:24:40;8.70;;;4.07;;
57375;SDS011;44805;45.048;5.062;2023-05-23T02:27:05;8.68;;;4.18;;
57375;SDS011;44805;45.048;5.062;2023-05-23T02:29:31;9.07;;;3.97;;
57375;SDS011;44805;45.048;5.062;2023-05-23T02:31:57;7.97;;;3.95;;
57375;SDS011;44805;45.048;5.062;2023-05-23T02:34:22;9.10;;;4.10;;
57375;SDS011;44805;45.048;5.062;2023-05-23T02:36:48;7.75;;;3.92;;
57375;SDS011;44805;45.048;5.062;2023-05-23T02:39:13;8.02;;;3.95;;
57375;SDS011;44805;45.048;5.062;2023-05-23T02:41:39;8.55;;;4.10;;
57375;SDS011;44805;45.048;5.062;2023-05-23T02:44:04;8.75;;;3.75;;
57375;SDS011;44805;45.048;5.062;2023-05-23T02:46:32;7.82;;;3.70;;
57375;SDS011;44805;45.048;5.062;2023-05-23T02:48:58;8.75;;;4.30;;
57375;SDS011;44805;45.048;5.062;2023-05-23T02:51:23;6.97;;;3.60;;
57375;SDS011;44805;45.048;5.062;2023-05-23T02:53:48;7.75;;;4.25;;
57375;SDS011;44805;45.048;5.062;2023-05-23T02:56:14;9.43;;;4.10;;
57375;SDS011;44805;45.048;5.062;2023-05-23T02:58:40;8.52;;;3.72;;
57375;SDS011;44805;45.048;5.062;2023-05-23T03:01:05;8.05;;;3.67;;
57375;SDS011;44805;45.048;5.062;2023-05-23T03:03:32;8.77;;;4.20;;
57375;SDS011;44805;45.048;5.062;2023-05-23T03:05:58;8.13;;;4.43;;
57375;SDS011;44805;45.048;5.062;2023-05-23T03:08:24;9.60;;;4.15;;
57375;SDS011;44805;45.048;5.062;2023-05-23T03:10:49;7.43;;;3.80;;
57375;SDS011;44805;45.048;5.062;2023-05-23T03:13:15;7.68;;;3.92;;
57375;SDS011;44805;45.048;5.062;2023-05-23T03:15:41;7.65;;;4.28;;
57375;SDS011;44805;45.048;5.062;2023-05-23T03:18:06;10.55;;;4.30;;
57375;SDS011;44805;45.048;5.062;2023-05-23T03:20:32;8.23;;;4.00;;
57375;SDS011;44805;45.048;5.062;2023-05-23T03:22:57;8.75;;;4.18;;
57375;SDS011;44805;45.048;5.062;2023-05-23T03:25:23;7.57;;;3.90;;
57375;SDS011;44805;45.048;5.062;2023-05-23T03:27:48;8.45;;;4.10;;
57375;SDS011;44805;45.048;5.062;2023-05-23T03:30:14;8.73;;;3.97;;
57375;SDS011;44805;45.048;5.062;2023-05-23T03:32:39;9.27;;;4.25;;
57375;SDS011;44805;45.048;5.062;2023-05-23T03:35:05;9.52;;;4.30;;
57375;SDS011;44805;45.048;5.062;2023-05-23T03:37:31;7.85;;;4.25;;
57375;SDS011;44805;45.048;5.062;2023-05-23T03:39:56;7.85;;;4.43;;
57375;SDS011;44805;45.048;5.062;2023-05-23T03:42:22;7.05;;;3.78;;
57375;SDS011;44805;45.048;5.062;2023-05-23T03:44:47;7.50;;;3.78;;
57375;SDS011;44805;45.048;5.062;2023-05-23T03:47:13;9.52;;;4.68;;
57375;SDS011;44805;45.048;5.062;2023-05-23T03:49:38;8.23;;;4.32;;
57375;SDS011;44805;45.048;5.062;2023-05-23T03:52:03;8.35;;;4.53;;
57375;SDS011;44805;45.048;5.062;2023-05-23T03:54:29;7.60;;;4.78;;
57375;SDS011;44805;45.048;5.062;2023-05-23T03:56:55;9.55;;;4.78;;
57375;SDS011;44805;45.048;5.062;2023-05-23T03:59:20;8.90;;;4.78;;
57375;SDS011;44805;45.048;5.062;2023-05-23T04:01:46;8.90;;;4.75;;
57375;SDS011;44805;45.048;5.062;2023-05-23T04:04:11;9.15;;;5.63;;
57375;SDS011;44805;45.048;5.062;2023-05-23T04:06:37;12.02;;;6.10;;
57375;SDS011;44805;45.048;5.062;2023-05-23T04:09:02;10.25;;;5.78;;
57375;SDS011;44805;45.048;5.062;2023-05-23T04:11:29;10.90;;;6.15;;
57375;SDS011;44805;45.048;5.062;2023-05-23T04:13:55;10.25;;;6.10;;
57375;SDS011;44805;45.048;5.062;2023-05-23T04:16:20;11.05;;;6.10;;
57375;SDS011;44805;45.048;5.062;2023-05-23T04:18:46;9.98;;;5.35;;
57375;SDS011;44805;45.048;5.062;2023-05-23T04:21:12;10.55;;;5.93;;
57375;SDS011;44805;45.048;5.062;2023-05-23T04:23:37;11.27;;;5.47;;
57375;SDS011;44805;45.048;5.062;2023-05-23T04:26:03;9.82;;;5.57;;
57375;SDS011;44805;45.048;5.062;2023-05-23T04:28:30;10.43;;;5.35;;
57375;SDS011;44805;45.048;5.062;2023-05-23T04:30:58;12.07;;;6.60;;
57375;SDS011;44805;45.048;5.062;2023-05-23T04:33:23;12.23;;;7.10;;
57375;SDS011;44805;45.048;5.062;2023-05-23T04:35:49;12.43;;;6.70;;
57375;SDS011;44805;45.048;5.062;2023-05-23T04:38:17;11.07;;;7.00;;
57375;SDS011;44805;45.048;5.062;2023-05-23T04:40:43;11.40;;;7.18;;
57375;SDS011;44805;45.048;5.062;2023-05-23T04:43:08;11.02;;;7.00;;
57375;SDS011;44805;45.048;5.062;2023-05-23T04:45:34;12.30;;;7.55;;
57375;SDS011;44805;45.048;5.062;2023-05-23T04:48:05;11.88;;;7.72;;
57375;SDS011;44805;45.048;5.062;2023-05-23T04:50:32;13.75;;;7.80;;
57375;SDS011;44805;45.048;5.062;2023-05-23T04:52:59;11.15;;;6.65;;
57375;SDS011;44805;45.048;5.062;2023-05-23T04:55:25;13.85;;;8.18;;
57375;SDS011;44805;45.048;5.062;2023-05-23T04:57:50;13.77;;;7.50;;
57375;SDS011;44805;45.048;5.062;2023-05-23T05:00:16;12.50;;;7.53;;
57375;SDS011;44805;45.048;5.062;2023-05-23T05:02:42;11.95;;;7.55;;
57375;SDS011;44805;45.048;5.062;2023-05-23T05:05:07;11.20;;;6.45;;
57375;SDS011;44805;45.048;5.062;2023-05-23T05:07:33;13.48;;;7.78;;
57375;SDS011;44805;45.048;5.062;2023-05-23T05:10:00;12.68;;;7.22;;
57375;SDS011;44805;45.048;5.062;2023-05-23T05:12:26;12.68;;;7.45;;
57375;SDS011;44805;45.048;5.062;2023-05-23T05:14:55;11.05;;;6.72;;
57375;SDS011;44805;45.048;5.062;2023-05-23T05:17:27;13.45;;;7.57;;
57375;SDS011;44805;45.048;5.062;2023-05-23T05:19:53;12.05;;;7.25;;
57375;SDS011;44805;45.048;5.062;2023-05-23T05:22:19;12.38;;;7.55;;
57375;SDS011;44805;45.048;5.062;2023-05-23T05:24:45;14.75;;;8.10;;
57375;SDS011;44805;45.048;5.062;2023-05-23T05:27:10;12.57;;;7.97;;
57375;SDS011;44805;45.048;5.062;2023-05-23T05:29:36;13.85;;;7.90;;
57375;SDS011;44805;45.048;5.062;2023-05-23T05:32:02;13.73;;;8.88;;
57375;SDS011;44805;45.048;5.062;2023-05-23T05:34:27;13.45;;;8.75;;
57375;SDS011;44805;45.048;5.062;2023-05-23T05:36:53;15.80;;;8.48;;
57375;SDS011;44805;45.048;5.062;2023-05-23T05:39:21;14.18;;;9.32;;
57375;SDS011;44805;45.048;5.062;2023-05-23T05:41:48;12.80;;;8.32;;
57375;SDS011;44805;45.048;5.062;2023-05-23T05:44:13;15.25;;;9.35;;
57375;SDS011;44805;45.048;5.062;2023-05-23T05:46:39;17.58;;;9.80;;
57375;SDS011;44805;45.048;5.062;2023-05-23T05:49:04;14.38;;;9.30;;
57375;SDS011;44805;45.048;5.062;2023-05-23T05:51:30;13.95;;;8.35;;
57375;SDS011;44805;45.048;5.062;2023-05-23T05:53:55;14.00;;;8.30;;
57375;SDS011;44805;45.048;5.062;2023-05-23T05:56:21;14.50;;;8.75;;
57375;SDS011;44805;45.048;5.062;2023-05-23T05:58:46;16.42;;;8.25;;
57375;SDS011;44805;45.048;5.062;2023-05-23T06:01:12;15.32;;;8.43;;
57375;SDS011;44805;45.048;5.062;2023-05-23T06:03:38;15.15;;;7.65;;
57375;SDS011;44805;45.048;5.062;2023-05-23T06:06:04;13.93;;;7.53;;
57375;SDS011;44805;45.048;5.062;2023-05-23T06:08:29;11.88;;;7.55;;
57375;SDS011;44805;45.048;5.062;2023-05-23T06:10:55;13.52;;;8.00;;
57375;SDS011;44805;45.048;5.062;2023-05-23T06:13:20;14.70;;;8.90;;
57375;SDS011;44805;45.048;5.062;2023-05-23T06:15:46;16.35;;;8.82;;
57375;SDS011;44805;45.048;5.062;2023-05-23T06:18:11;14.63;;;8.55;;
57375;SDS011;44805;45.048;5.062;2023-05-23T06:20:37;15.88;;;8.93;;
57375;SDS011;44805;45.048;5.062;2023-05-23T06:23:02;14.93;;;10.00;;
57375;SDS011;44805;45.048;5.062;2023-05-23T06:25:29;17.65;;;9.60;;
57375;SDS011;44805;45.048;5.062;2023-05-23T06:27:55;13.43;;;8.25;;
57375;SDS011;44805;45.048;5.062;2023-05-23T06:30:20;14.75;;;9.00;;
57375;SDS011;44805;45.048;5.062;2023-05-23T06:32:47;15.65;;;9.20;;
57375;SDS011;44805;45.048;5.062;2023-05-23T06:35:12;16.55;;;10.40;;
57375;SDS011;44805;45.048;5.062;2023-05-23T06:37:38;22.00;;;13.48;;
57375;SDS011;44805;45.048;5.062;2023-05-23T06:40:07;21.33;;;13.18;;
57375;SDS011;44805;45.048;5.062;2023-05-23T06:42:33;24.88;;;15.13;;
57375;SDS011;44805;45.048;5.062;2023-05-23T06:44:58;26.15;;;16.48;;
57375;SDS011;44805;45.048;5.062;2023-05-23T06:47:24;23.85;;;15.68;;
57375;SDS011;44805;45.048;5.062;2023-05-23T06:49:49;24.40;;;15.68;;
57375;SDS011;44805;45.048;5.062;2023-05-23T06:52:15;25.92;;;16.50;;
57375;SDS011;44805;45.048;5.062;2023-05-23T06:54:40;24.65;;;15.90;;
57375;SDS011;44805;45.048;5.062;2023-05-23T06:57:06;27.23;;;17.10;;
57375;SDS011;44805;45.048;5.062;2023-05-23T06:59:31;25.50;;;17.25;;
57375;SDS011;44805;45.048;5.062;2023-05-23T07:01:56;26.70;;;17.25;;
57375;SDS011;44805;45.048;5.062;2023-05-23T07:04:22;25.73;;;16.95;;
57375;SDS011;44805;45.048;5.062;2023-05-23T07:06:47;27.00;;;17.63;;
57375;SDS011;44805;45.048;5.062;2023-05-23T07:09:13;22.95;;;15.32;;
57375;SDS011;44805;45.048;5.062;2023-05-23T07:11:38;26.80;;;17.10;;
57375;SDS011;44805;45.048;5.062;2023-05-23T07:14:05;22.00;;;14.52;;
57375;SDS011;44805;45.048;5.062;2023-05-23T07:16:31;23.20;;;15.00;;
57375;SDS011;44805;45.048;5.062;2023-05-23T07:18:57;23.95;;;14.93;;
57375;SDS011;44805;45.048;5.062;2023-05-23T07:21:22;25.98;;;16.55;;
57375;SDS011;44805;45.048;5.062;2023-05-23T07:23:48;30.00;;;18.02;;
57375;SDS011;44805;45.048;5.062;2023-05-23T07:26:13;29.88;;;19.02;;
57375;SDS011;44805;45.048;5.062;2023-05-23T07:28:39;31.48;;;20.05;;
57375;SDS011;44805;45.048;5.062;2023-05-23T07:31:04;31.38;;;20.35;;
57375;SDS011;44805;45.048;5.062;2023-05-23T07:33:29;31.02;;;20.75;;
57375;SDS011;44805;45.048;5.062;2023-05-23T07:35:57;30.63;;;20.27;;
57375;SDS011;44805;45.048;5.062;2023-05-23T07:38:22;30.58;;;20.10;;
57375;SDS011;44805;45.048;5.062;2023-05-23T07:40:50;29.65;;;19.38;;
57375;SDS011;44805;45.048;5.062;2023-05-23T07:43:15;29.98;;;19.48;;
57375;SDS011;44805;45.048;5.062;2023-05-23T07:45:40;31.20;;;19.92;;
57375;SDS011;44805;45.048;5.062;2023-05-23T07:48:07;29.73;;;20.20;;
57375;SDS011;44805;45.048;5.062;2023-05-23T07:50:33;30.88;;;20.27;;
57375;SDS011;44805;45.048;5.062;2023-05-23T07:52:58;32.42;;;20.52;;
57375;SDS011;44805;45.048;5.062;2023-05-23T07:55:23;28.92;;;20.02;;
57375;SDS011;44805;45.048;5.062;2023-05-23T07:57:49;29.65;;;19.77;;
57375;SDS011;44805;45.048;5.062;2023-05-23T08:00:15;30.17;;;18.80;;
57375;SDS011;44805;45.048;5.062;2023-05-23T08:02:40;29.17;;;18.77;;
57375;SDS011;44805;45.048;5.062;2023-05-23T08:05:06;32.15;;;20.73;;
57375;SDS011;44805;45.048;5.062;2023-05-23T08:07:32;30.48;;;19.02;;
57375;SDS011;44805;45.048;5.062;2023-05-23T08:09:58;30.70;;;19.10;;
57375;SDS011;44805;45.048;5.062;2023-05-23T08:12:23;27.17;;;18.13;;
57375;SDS011;44805;45.048;5.062;2023-05-23T08:14:48;29.73;;;19.05;;
57375;SDS011;44805;45.048;5.062;2023-05-23T08:17:14;30.52;;;18.88;;
57375;SDS011;44805;45.048;5.062;2023-05-23T08:19:39;29.15;;;18.50;;
57375;SDS011;44805;45.048;5.062;2023-05-23T08:22:05;31.92;;;18.80;;
57375;SDS011;44805;45.048;5.062;2023-05-23T08:24:31;30.02;;;18.52;;
57375;SDS011;44805;45.048;5.062;2023-05-23T08:26:58;30.75;;;19.17;;
57375;SDS011;44805;45.048;5.062;2023-05-23T08:29:27;29.52;;;19.40;;
57375;SDS011;44805;45.048;5.062;2023-05-23T08:31:52;30.45;;;19.17;;
57375;SDS011;44805;45.048;5.062;2023-05-23T08:34:17;31.85;;;17.92;;
57375;SDS011;44805;45.048;5.062;2023-05-23T08:36:43;29.48;;;18.23;;
57375;SDS011;44805;45.048;5.062;2023-05-23T08:39:08;26.77;;;17.55;;
57375;SDS011;44805;45.048;5.062;2023-05-23T08:41:37;29.87;;;18.70;;
57375;SDS011;44805;45.048;5.062;2023-05-23T08:44:03;29.60;;;17.13;;
57375;SDS011;44805;45.048;5.062;2023-05-23T08:46:28;29.13;;;18.05;;
57375;SDS011;44805;45.048;5.062;2023-05-23T08:48:57;29.23;;;17.85;;
57375;SDS011;44805;45.048;5.062;2023-05-23T08:51:24;29.20;;;17.40;;
57375;SDS011;44805;45.048;5.062;2023-05-23T08:53:51;29.48;;;18.30;;
57375;SDS011;44805;45.048;5.062;2023-05-23T08:56:20;30.98;;;18.17;;
57375;SDS011;44805;45.048;5.062;2023-05-23T08:58:47;27.88;;;17.33;;
57375;SDS011;44805;45.048;5.062;2023-05-23T09:01:13;27.55;;;17.55;;
57375;SDS011;44805;45.048;5.062;2023-05-23T09:03:51;27.45;;;16.85;;
57375;SDS011;44805;45.048;5.062;2023-05-23T09:06:19;27.92;;;17.13;;
57375;SDS011;44805;45.048;5.062;2023-05-23T09:08:45;26.85;;;16.80;;
57375;SDS011;44805;45.048;5.062;2023-05-23T09:11:10;26.42;;;17.15;;
57375;SDS011;44805;45.048;5.062;2023-05-23T09:13:38;27.50;;;16.35;;
57375;SDS011;44805;45.048;5.062;2023-05-23T09:16:08;27.92;;;16.27;;
57375;SDS011;44805;45.048;5.062;2023-05-23T09:18:38;26.90;;;17.35;;
57375;SDS011;44805;45.048;5.062;2023-05-23T09:21:06;25.77;;;16.40;;
57375;SDS011;44805;45.048;5.062;2023-05-23T09:23:34;25.95;;;17.05;;
57375;SDS011;44805;45.048;5.062;2023-05-23T09:26:01;26.98;;;16.50;;
57375;SDS011;44805;45.048;5.062;2023-05-23T09:28:28;24.40;;;14.98;;
57375;SDS011;44805;45.048;5.062;2023-05-23T09:30:57;28.35;;;16.70;;
57375;SDS011;44805;45.048;5.062;2023-05-23T09:33:37;24.08;;;15.32;;
57375;SDS011;44805;45.048;5.062;2023-05-23T09:36:05;26.85;;;16.25;;
57375;SDS011;44805;45.048;5.062;2023-05-23T09:38:31;24.63;;;15.82;;
57375;SDS011;44805;45.048;5.062;2023-05-23T09:41:02;24.85;;;15.70;;
57375;SDS011;44805;45.048;5.062;2023-05-23T09:43:27;23.58;;;15.68;;
57375;SDS011;44805;45.048;5.062;2023-05-23T09:45:53;26.17;;;15.32;;
57375;SDS011;44805;45.048;5.062;2023-05-23T09:48:19;26.98;;;16.02;;
57375;SDS011;44805;45.048;5.062;2023-05-23T09:50:53;24.50;;;16.48;;
57375;SDS011;44805;45.048;5.062;2023-05-23T09:53:18;23.67;;;15.20;;
57375;SDS011;44805;45.048;5.062;2023-05-23T09:55:45;22.80;;;14.82;;
57375;SDS011;44805;45.048;5.062;2023-05-23T09:58:12;26.00;;;15.93;;
57375;SDS011;44805;45.048;5.062;2023-05-23T10:00:38;30.27;;;16.85;;
57375;SDS011;44805;45.048;5.062;2023-05-23T10:03:12;26.15;;;15.02;;
57375;SDS011;44805;45.048;5.062;2023-05-23T10:05:46;23.88;;;15.80;;
57375;SDS011;44805;45.048;5.062;2023-05-23T10:13:24;27.42;;;16.23;;
57375;SDS011;44805;45.048;5.062;2023-05-23T10:15:53;24.88;;;14.35;;
57375;SDS011;44805;45.048;5.062;2023-05-23T10:18:24;25.02;;;14.88;;
57375;SDS011;44805;45.048;5.062;2023-05-23T10:20:53;24.75;;;14.85;;
57375;SDS011;44805;45.048;5.062;2023-05-23T10:23:26;23.23;;;14.75;;
57375;SDS011;44805;45.048;5.062;2023-05-23T10:25:53;23.40;;;14.55;;
57375;SDS011;44805;45.048;5.062;2023-05-23T10:28:19;21.55;;;13.85;;
57375;SDS011;44805;45.048;5.062;2023-05-23T10:30:45;24.25;;;14.27;;
57375;SDS011;44805;45.048;5.062;2023-05-23T10:33:12;22.25;;;13.85;;
57375;SDS011;44805;45.048;5.062;2023-05-23T10:35:46;21.33;;;13.90;;
57375;SDS011;44805;45.048;5.062;2023-05-23T10:41:02;22.25;;;14.52;;
57375;SDS011;44805;45.048;5.062;2023-05-23T10:46:13;23.38;;;14.85;;
57375;SDS011;44805;45.048;5.062;2023-05-23T10:48:42;22.10;;;14.55;;
57375;SDS011;44805;45.048;5.062;2023-05-23T10:53:36;21.58;;;13.30;;
57375;SDS011;44805;45.048;5.062;2023-05-23T10:56:05;26.25;;;15.23;;
57375;SDS011;44805;45.048;5.062;2023-05-23T10:58:35;22.90;;;14.63;;
57375;SDS011;44805;45.048;5.062;2023-05-23T11:01:06;23.75;;;15.07;;
57375;SDS011;44805;45.048;5.062;2023-05-23T11:03:33;21.40;;;14.82;;
57375;SDS011;44805;45.048;5.062;2023-05-23T11:06:32;21.67;;;14.88;;
57375;SDS011;44805;45.048;5.062;2023-05-23T11:14:19;26.00;;;16.55;;
57375;SDS011;44805;45.048;5.062;2023-05-23T11:16:55;24.02;;;14.95;;
57375;SDS011;44805;45.048;5.062;2023-05-23T11:19:21;25.40;;;15.60;;
57375;SDS011;44805;45.048;5.062;2023-05-23T11:27:17;24.58;;;15.05;;
57375;SDS011;44805;45.048;5.062;2023-05-23T11:32:28;25.10;;;15.07;;
57375;SDS011;44805;45.048;5.062;2023-05-23T11:34:57;23.95;;;14.57;;
57375;SDS011;44805;45.048;5.062;2023-05-23T11:37:24;24.00;;;15.30;;
57375;SDS011;44805;45.048;5.062;2023-05-23T11:39:50;22.88;;;14.55;;
57375;SDS011;44805;45.048;5.062;2023-05-23T11:42:15;24.17;;;14.68;;
57375;SDS011;44805;45.048;5.062;2023-05-23T11:44:40;22.98;;;14.30;;
57375;SDS011;44805;45.048;5.062;2023-05-23T11:47:06;23.50;;;14.27;;
57375;SDS011;44805;45.048;5.062;2023-05-23T11:49:36;24.13;;;14.75;;
57375;SDS011;44805;45.048;5.062;2023-05-23T11:52:02;25.83;;;15.10;;
57375;SDS011;44805;45.048;5.062;2023-05-23T11:54:28;21.73;;;14.70;;
57375;SDS011;44805;45.048;5.062;2023-05-23T11:56:54;26.05;;;14.88;;
57375;SDS011;44805;45.048;5.062;2023-05-23T11:59:24;22.52;;;15.25;;
57375;SDS011;44805;45.048;5.062;2023-05-23T12:01:50;23.27;;;14.85;;
57375;SDS011;44805;45.048;5.062;2023-05-23T12:04:20;25.40;;;15.85;;
57375;SDS011;44805;45.048;5.062;2023-05-23T12:06:46;25.13;;;15.95;;
57375;SDS011;44805;45.048;5.062;2023-05-23T12:09:15;27.10;;;15.50;;
57375;SDS011;44805;45.048;5.062;2023-05-23T12:11:41;22.20;;;14.90;;
57375;SDS011;44805;45.048;5.062;2023-05-23T12:14:08;25.08;;;15.55;;
57375;SDS011;44805;45.048;5.062;2023-05-23T12:16:37;22.67;;;13.48;;
57375;SDS011;44805;45.048;5.062;2023-05-23T12:19:03;23.65;;;14.10;;
57375;SDS011;44805;45.048;5.062;2023-05-23T12:21:39;25.45;;;15.27;;
57375;SDS011;44805;45.048;5.062;2023-05-23T12:24:13;22.98;;;14.95;;
57375;SDS011;44805;45.048;5.062;2023-05-23T12:26:49;26.15;;;15.27;;
57375;SDS011;44805;45.048;5.062;2023-05-23T12:29:20;26.20;;;15.25;;
57375;SDS011;44805;45.048;5.062;2023-05-23T12:31:52;23.20;;;14.38;;
57375;SDS011;44805;45.048;5.062;2023-05-23T12:34:18;22.98;;;15.05;;
57375;SDS011;44805;45.048;5.062;2023-05-23T12:36:44;23.83;;;14.63;;
57375;SDS011;44805;45.048;5.062;2023-05-23T12:39:10;22.35;;;14.02;;
57375;SDS011;44805;45.048;5.062;2023-05-23T12:41:37;22.15;;;14.15;;
57375;SDS011;44805;45.048;5.062;2023-05-23T12:44:06;22.77;;;14.32;;
57375;SDS011;44805;45.048;5.062;2023-05-23T12:46:31;22.20;;;14.15;;
57375;SDS011;44805;45.048;5.062;2023-05-23T12:48:57;21.25;;;13.77;;
57375;SDS011;44805;45.048;5.062;2023-05-23T12:51:23;20.77;;;13.05;;
57375;SDS011;44805;45.048;5.062;2023-05-23T12:53:49;22.15;;;13.35;;
57375;SDS011;44805;45.048;5.062;2023-05-23T12:56:15;21.35;;;13.15;;
57375;SDS011;44805;45.048;5.062;2023-05-23T12:58:40;20.95;;;13.68;;
57375;SDS011;44805;45.048;5.062;2023-05-23T13:01:06;21.85;;;14.02;;
57375;SDS011;44805;45.048;5.062;2023-05-23T13:03:31;23.60;;;13.55;;
57375;SDS011;44805;45.048;5.062;2023-05-23T13:05:57;19.90;;;12.65;;
57375;SDS011;44805;45.048;5.062;2023-05-23T13:08:23;21.80;;;13.75;;
57375;SDS011;44805;45.048;5.062;2023-05-23T13:10:54;23.15;;;13.68;;
57375;SDS011;44805;45.048;5.062;2023-05-23T13:15:55;20.92;;;13.35;;
57375;SDS011;44805;45.048;5.062;2023-05-23T13:18:20;21.55;;;13.20;;
57375;SDS011;44805;45.048;5.062;2023-05-23T13:20:46;23.50;;;14.20;;
57375;SDS011;44805;45.048;5.062;2023-05-23T13:23:11;21.05;;;13.15;;
57375;SDS011;44805;45.048;5.062;2023-05-23T13:25:36;23.08;;;13.65;;
57375;SDS011;44805;45.048;5.062;2023-05-23T13:28:02;20.90;;;13.00;;
57375;SDS011;44805;45.048;5.062;2023-05-23T13:30:27;19.92;;;12.88;;
57375;SDS011;44805;45.048;5.062;2023-05-23T13:32:53;20.95;;;12.80;;
57375;SDS011;44805;45.048;5.062;2023-05-23T13:35:19;20.02;;;12.32;;
57375;SDS011;44805;45.048;5.062;2023-05-23T13:37:44;22.98;;;12.63;;
57375;SDS011;44805;45.048;5.062;2023-05-23T13:40:17;23.25;;;13.93;;
57375;SDS011;44805;45.048;5.062;2023-05-23T13:42:44;21.25;;;12.63;;
57375;SDS011;44805;45.048;5.062;2023-05-23T13:45:14;19.15;;;13.20;;
57375;SDS011;44805;45.048;5.062;2023-05-23T13:47:40;19.70;;;11.85;;
57375;SDS011;44805;45.048;5.062;2023-05-23T13:50:06;20.77;;;13.02;;
57375;SDS011;44805;45.048;5.062;2023-05-23T13:52:32;20.65;;;12.43;;
57375;SDS011;44805;45.048;5.062;2023-05-23T13:54:57;21.50;;;13.82;;
57375;SDS011;44805;45.048;5.062;2023-05-23T13:57:25;20.50;;;12.23;;
57375;SDS011;44805;45.048;5.062;2023-05-23T13:59:50;19.95;;;11.88;;
57375;SDS011;44805;45.048;5.062;2023-05-23T14:02:16;20.02;;;12.45;;
57375;SDS011;44805;45.048;5.062;2023-05-23T14:04:42;20.90;;;13.55;;
57375;SDS011;44805;45.048;5.062;2023-05-23T14:07:07;22.92;;;12.85;;
57375;SDS011;44805;45.048;5.062;2023-05-23T14:09:32;20.85;;;13.18;;
57375;SDS011;44805;45.048;5.062;2023-05-23T14:11:58;21.63;;;13.27;;
57375;SDS011;44805;45.048;5.062;2023-05-23T14:14:23;20.67;;;13.27;;
57375;SDS011;44805;45.048;5.062;2023-05-23T14:16:50;21.55;;;12.82;;
57375;SDS011;44805;45.048;5.062;2023-05-23T14:19:16;22.85;;;13.25;;
57375;SDS011;44805;45.048;5.062;2023-05-23T14:21:41;23.45;;;13.88;;
57375;SDS011;44805;45.048;5.062;2023-05-23T14:24:07;20.10;;;13.32;;
57375;SDS011;44805;45.048;5.062;2023-05-23T14:26:32;20.92;;;12.88;;
57375;SDS011;44805;45.048;5.062;2023-05-23T14:28:57;21.10;;;13.48;;
57375;SDS011;44805;45.048;5.062;2023-05-23T14:31:23;23.05;;;13.38;;
57375;SDS011;44805;45.048;5.062;2023-05-23T14:33:48;21.83;;;13.07;;
57375;SDS011;44805;45.048;5.062;2023-05-23T14:36:14;21.08;;;12.35;;
57375;SDS011;44805;45.048;5.062;2023-05-23T14:38:40;21.52;;;13.05;;
57375;SDS011;44805;45.048;5.062;2023-05-23T14:41:09;20.98;;;13.10;;
57375;SDS011;44805;45.048;5.062;2023-05-23T14:43:35;22.95;;;13.15;;
57375;SDS011;44805;45.048;5.062;2023-05-23T14:46:00;18.98;;;12.40;;
57375;SDS011;44805;45.048;5.062;2023-05-23T14:48:26;22.52;;;13.48;;
57375;SDS011;44805;45.048;5.062;2023-05-23T14:50:51;21.80;;;13.32;;
57375;SDS011;44805;45.048;5.062;2023-05-23T14:53:16;21.02;;;13.75;;
57375;SDS011;44805;45.048;5.062;2023-05-23T14:55:45;21.08;;;13.73;;
57375;SDS011;44805;45.048;5.062;2023-05-23T14:58:11;21.77;;;13.07;;
57375;SDS011;44805;45.048;5.062;2023-05-23T15:00:36;19.73;;;12.20;;
57375;SDS011;44805;45.048;5.062;2023-05-23T15:03:04;19.77;;;12.10;;
57375;SDS011;44805;45.048;5.062;2023-05-23T15:05:32;19.80;;;13.55;;